Time;durP1;ratioP1;P1;durP2;ratioP2;P2;SDS_P1;SDS_P2;PMS_P1;PMS_P2;Temp;Humidity;BMP_temperature;BMP_pressure;BME280_temperature;BME280_humidity;BME280_pressure;Samples;Min_cycle;Max_cycle;Signal;HPM_P1;HPM_P2
2022/12/31 00:01:44;;;;;;;0.80;0.80;;;13.30;99.90;;;;;;5052363;28;20032;-54
2022/12/31 00:04:10;;;;;;;1.23;1.00;;;13.30;99.90;;;;;;5051111;28;20029;-49
2022/12/31 00:06:36;;;;;;;2.17;1.00;;;13.30;99.90;;;;;;5051686;28;20104;-50
2022/12/31 00:09:05;;;;;;;0.77;0.73;;;13.40;99.90;;;;;;5052565;28;20404;-59
2022/12/31 00:11:32;;;;;;;0.70;0.70;;;13.50;99.90;;;;;;5051779;28;20086;-57
2022/12/31 00:13:58;;;;;;;1.20;1.00;;;13.50;99.90;;;;;;5050730;28;20028;-54
2022/12/31 00:16:28;;;;;;;1.10;0.73;;;13.50;99.90;;;;;;5051918;28;20029;-57
2022/12/31 00:18:58;;;;;;;1.08;1.05;;;13.50;99.90;;;;;;5051376;28;20021;-55
2022/12/31 00:21:24;;;;;;;1.05;0.70;;;13.50;99.90;;;;;;5051732;28;20025;-58
2022/12/31 00:23:50;;;;;;;2.25;0.90;;;13.50;99.90;;;;;;5051027;28;20032;-52
2022/12/31 00:26:19;;;;;;;2.05;1.35;;;13.50;99.90;;;;;;5051816;28;20027;-54
2022/12/31 00:28:46;;;;;;;1.13;0.95;;;13.50;99.90;;;;;;5051032;28;20028;-44
2022/12/31 00:31:15;;;;;;;0.70;0.70;;;13.50;99.90;;;;;;5051348;28;20766;-48
2022/12/31 00:33:42;;;;;;;1.15;1.00;;;13.60;99.90;;;;;;5049062;28;20116;-47
2022/12/31 00:36:20;;;;;;;0.65;0.65;;;13.60;99.90;;;;;;5052320;28;20048;-53
2022/12/31 00:38:47;;;;;;;0.73;0.73;;;13.60;99.90;;;;;;5051764;28;20481;-50
2022/12/31 00:41:14;;;;;;;2.70;1.00;;;13.60;99.90;;;;;;5050006;28;20037;-48
2022/12/31 00:43:40;;;;;;;0.60;0.60;;;13.60;99.90;;;;;;5048867;28;20393;-53
2022/12/31 00:46:06;;;;;;;0.85;0.85;;;13.60;99.90;;;;;;5050877;28;20029;-42
2022/12/31 00:48:33;;;;;;;2.15;1.10;;;13.60;99.90;;;;;;5050450;28;20108;-46
2022/12/31 00:51:00;;;;;;;1.67;0.80;;;13.60;99.90;;;;;;5050149;28;20025;-42
2022/12/31 00:53:26;;;;;;;1.88;0.65;;;13.60;99.90;;;;;;5049686;28;20043;-47
2022/12/31 00:55:58;;;;;;;0.70;0.70;;;13.60;99.90;;;;;;5048435;28;20100;-49
2022/12/31 00:58:23;;;;;;;0.70;0.70;;;13.70;99.90;;;;;;5033087;28;20477;-44
2022/12/31 01:00:48;;;;;;;0.82;0.80;;;13.80;99.90;;;;;;5050599;28;20036;-45
2022/12/31 01:03:14;;;;;;;0.70;0.70;;;13.80;99.90;;;;;;5051058;28;20039;-46
2022/12/31 01:05:39;;;;;;;0.60;0.60;;;13.80;99.90;;;;;;5051740;28;20534;-42
2022/12/31 01:08:05;;;;;;;4.35;2.17;;;13.80;99.90;;;;;;5034882;28;20025;-44
2022/12/31 01:13:14;;;;;;;0.52;0.52;;;14.00;99.90;;;;;;5052015;28;20411;-45
2022/12/31 01:15:40;;;;;;;0.90;0.60;;;14.00;99.90;;;;;;5051863;28;20025;-43
2022/12/31 01:18:06;;;;;;;2.08;0.60;;;14.00;99.90;;;;;;5051955;28;20025;-46
2022/12/31 01:20:37;;;;;;;5.60;0.60;;;14.10;99.90;;;;;;5051730;28;20021;-43
2022/12/31 01:23:02;;;;;;;0.65;0.55;;;14.10;99.90;;;;;;5050983;28;20036;-42
2022/12/31 01:25:28;;;;;;;1.55;0.70;;;14.10;99.90;;;;;;5051695;28;20469;-42
2022/12/31 01:27:53;;;;;;;1.63;0.88;;;14.00;99.90;;;;;;5052040;28;20029;-45
2022/12/31 01:30:19;;;;;;;1.08;0.60;;;14.00;99.90;;;;;;5051050;28;20032;-47
2022/12/31 01:32:44;;;;;;;0.88;0.70;;;14.00;99.90;;;;;;5050989;28;20029;-42
2022/12/31 01:35:10;;;;;;;0.70;0.70;;;13.90;99.90;;;;;;5051686;28;20021;-43
2022/12/31 01:37:35;;;;;;;3.67;0.95;;;13.90;99.90;;;;;;5033385;28;20067;-42
2022/12/31 01:40:01;;;;;;;0.60;0.60;;;13.80;99.90;;;;;;5051252;28;20112;-48
2022/12/31 01:42:26;;;;;;;3.50;0.73;;;13.80;99.90;;;;;;5051023;28;20029;-48
2022/12/31 01:44:54;;;;;;;2.47;1.17;;;13.80;99.90;;;;;;5033744;28;20071;-42
2022/12/31 01:47:33;;;;;;;0.77;0.75;;;13.80;99.90;;;;;;5051286;28;20103;-42
2022/12/31 01:50:25;;;;;;;0.70;0.70;;;13.80;99.90;;;;;;5051937;28;20100;-45
2022/12/31 01:52:55;;;;;;;1.80;0.60;;;13.80;99.90;;;;;;5030782;28;20535;-43
2022/12/31 01:55:31;;;;;;;2.28;0.98;;;13.80;99.90;;;;;;5050110;28;20033;-45
2022/12/31 01:58:04;;;;;;;1.80;0.90;;;13.80;99.90;;;;;;5051273;28;20035;-44
2022/12/31 02:00:30;;;;;;;0.80;0.80;;;13.90;99.90;;;;;;5051166;28;20378;-45
2022/12/31 02:02:56;;;;;;;0.98;0.98;;;13.90;99.90;;;;;;5050629;28;20025;-44
2022/12/31 02:05:27;;;;;;;0.93;0.90;;;14.00;99.90;;;;;;5051086;28;20036;-43
2022/12/31 02:07:53;;;;;;;1.15;0.70;;;14.00;99.90;;;;;;5051245;28;20328;-41
2022/12/31 02:10:19;;;;;;;1.85;1.20;;;14.00;99.90;;;;;;5051141;28;20029;-42
2022/12/31 02:12:45;;;;;;;1.23;0.90;;;14.10;99.90;;;;;;5050348;28;20118;-48
2022/12/31 02:15:11;;;;;;;1.20;1.10;;;14.30;99.90;;;;;;5051219;28;20492;-42
2022/12/31 02:18:08;;;;;;;3.08;1.27;;;14.40;99.90;;;;;;5050963;28;20044;-47
2022/12/31 02:21:00;;;;;;;1.92;1.23;;;14.50;99.90;;;;;;5033106;28;20029;-46
2022/12/31 02:24:07;;;;;;;1.27;1.17;;;14.60;99.90;;;;;;5050388;28;20017;-46
2022/12/31 02:26:57;;;;;;;1.05;0.93;;;14.60;99.90;;;;;;4979293;28;20118;-45
2022/12/31 02:29:50;;;;;;;4.13;1.08;;;14.60;99.90;;;;;;5050972;28;20128;-39
2022/12/31 02:32:23;;;;;;;2.13;1.00;;;14.70;99.90;;;;;;5050123;28;20489;-42
2022/12/31 02:34:55;;;;;;;1.23;0.95;;;14.70;99.90;;;;;;5051017;28;20027;-45
2022/12/31 02:37:22;;;;;;;1.50;1.25;;;14.80;99.90;;;;;;5050869;28;20593;-43
2022/12/31 02:39:48;;;;;;;1.80;1.27;;;14.80;99.90;;;;;;5050753;28;20119;-44
2022/12/31 02:42:14;;;;;;;2.70;1.10;;;14.80;99.90;;;;;;5050916;28;20116;-43
2022/12/31 02:44:41;;;;;;;1.00;1.00;;;14.80;99.90;;;;;;5054726;28;20029;-44
2022/12/31 02:47:31;;;;;;;4.30;1.23;;;14.90;99.90;;;;;;5054618;28;20025;-42
2022/12/31 02:50:02;;;;;;;6.63;1.60;;;14.80;99.90;;;;;;5054547;28;20060;-43
2022/12/31 02:52:46;;;;;;;1.73;1.10;;;14.80;99.90;;;;;;5053667;28;20029;-44
2022/12/31 02:55:24;;;;;;;2.53;1.20;;;14.90;99.90;;;;;;5053606;28;20419;-42
2022/12/31 03:02:12;;;;;;;3.95;1.23;;;14.80;99.90;;;;;;5054487;28;20502;-43
2022/12/31 03:04:30;;;;;;;8.00;1.23;;;14.80;99.90;;;;;;5053959;28;20120;-42
2022/12/31 03:06:50;;;;;;;3.58;1.10;;;14.90;99.90;;;;;;5054192;28;20020;-43
2022/12/31 03:09:16;;;;;;;1.58;1.27;;;14.90;99.90;;;;;;5036676;28;20063;-43
2022/12/31 03:14:26;;;;;;;1.48;1.08;;;14.90;99.90;;;;;;5054500;28;20056;-42
2022/12/31 03:16:51;;;;;;;1.75;1.10;;;14.90;99.90;;;;;;5036274;28;20481;-42
2022/12/31 03:27:29;;;;;;;1.58;1.38;;;14.90;99.90;;;;;;5054189;28;20231;-44
2022/12/31 03:29:54;;;;;;;1.60;1.02;;;14.90;99.90;;;;;;5054024;28;20135;-43
2022/12/31 03:32:19;;;;;;;2.00;1.13;;;14.90;99.90;;;;;;5053244;28;20461;-45
2022/12/31 03:34:45;;;;;;;1.33;1.00;;;15.00;99.90;;;;;;5053766;28;20041;-43
2022/12/31 03:37:10;;;;;;;0.93;0.90;;;14.90;99.90;;;;;;5053695;28;20025;-43
2022/12/31 03:39:36;;;;;;;1.65;1.00;;;14.90;99.90;;;;;;5053765;28;20060;-43
2022/12/31 03:42:01;;;;;;;4.40;1.10;;;14.90;99.90;;;;;;5059914;22;20049;-48
2022/12/31 03:44:27;;;;;;;1.08;1.05;;;14.90;99.90;;;;;;5016003;28;20040;-45
2022/12/31 03:46:52;;;;;;;4.55;2.15;;;14.90;99.90;;;;;;5033707;28;20025;-44
2022/12/31 03:49:18;;;;;;;1.20;0.98;;;14.80;99.90;;;;;;5033790;28;20420;-45
2022/12/31 03:51:43;;;;;;;3.10;1.20;;;14.80;99.90;;;;;;5033381;28;20033;-44
2022/12/31 03:54:09;;;;;;;1.23;1.13;;;14.80;99.90;;;;;;5030728;28;20029;-46
2022/12/31 03:56:34;;;;;;;1.10;1.00;;;14.80;99.90;;;;;;5033511;28;20029;-47
2022/12/31 03:59:00;;;;;;;1.98;0.82;;;14.80;99.90;;;;;;5033390;28;20036;-44
2022/12/31 04:01:25;;;;;;;1.25;1.13;;;14.80;99.90;;;;;;5033292;28;20037;-46
2022/12/31 04:03:51;;;;;;;1.20;0.98;;;14.70;99.90;;;;;;5032532;28;20022;-46
2022/12/31 04:06:16;;;;;;;0.95;0.85;;;14.80;99.90;;;;;;5033275;28;20025;-47
2022/12/31 04:08:42;;;;;;;4.30;1.00;;;14.80;99.90;;;;;;5033232;28;20055;-52
2022/12/31 04:11:07;;;;;;;2.92;1.17;;;14.80;99.90;;;;;;5033253;28;20040;-45
2022/12/31 04:13:33;;;;;;;3.25;1.35;;;14.90;99.90;;;;;;5032402;28;20421;-51
2022/12/31 04:15:58;;;;;;;3.60;1.50;;;15.00;99.90;;;;;;5033159;28;20022;-47
2022/12/31 04:18:24;;;;;;;2.92;0.98;;;15.00;99.90;;;;;;5033037;28;20553;-47
2022/12/31 04:20:49;;;;;;;1.63;1.52;;;15.10;99.90;;;;;;5032999;28;20041;-48
2022/12/31 04:23:15;;;;;;;1.42;0.82;;;15.10;99.90;;;;;;5032176;28;20096;-49
2022/12/31 04:25:41;;;;;;;1.23;1.13;;;15.20;99.90;;;;;;5032829;28;20025;-47
2022/12/31 04:28:06;;;;;;;1.10;0.80;;;15.20;99.90;;;;;;5032845;28;20037;-46
2022/12/31 04:30:32;;;;;;;1.85;1.10;;;15.20;99.90;;;;;;5032632;28;20053;-51
2022/12/31 04:32:57;;;;;;;2.20;1.33;;;15.30;99.90;;;;;;5032207;28;20029;-48
2022/12/31 04:35:23;;;;;;;2.47;1.13;;;15.30;99.90;;;;;;5032729;28;20040;-48
2022/12/31 04:37:48;;;;;;;4.88;0.90;;;15.40;99.90;;;;;;5032596;28;20545;-49
2022/12/31 04:40:14;;;;;;;2.97;1.05;;;15.40;99.90;;;;;;5032930;28;20072;-45
2022/12/31 04:42:39;;;;;;;2.30;0.90;;;15.40;99.90;;;;;;5031643;28;20528;-50
2022/12/31 04:45:06;;;;;;;1.00;0.90;;;15.40;99.90;;;;;;5032643;28;20026;-48
2022/12/31 04:47:31;;;;;;;2.72;1.20;;;15.40;99.90;;;;;;5032301;28;20030;-48
2022/12/31 04:49:57;;;;;;;1.20;1.08;;;15.40;99.90;;;;;;5032483;28;20021;-52
2022/12/31 04:52:22;;;;;;;3.65;1.20;;;15.40;99.90;;;;;;5031262;28;20021;-46
2022/12/31 04:54:48;;;;;;;1.08;1.00;;;15.50;99.90;;;;;;5031543;28;20045;-48
2022/12/31 04:57:13;;;;;;;9.07;1.98;;;15.50;99.90;;;;;;5032401;28;20021;-48
2022/12/31 04:59:39;;;;;;;1.20;1.00;;;15.60;99.90;;;;;;5032268;28;20036;-49
2022/12/31 05:02:04;;;;;;;2.42;0.88;;;15.60;99.90;;;;;;5031884;28;20120;-50
2022/12/31 05:04:30;;;;;;;2.92;1.08;;;15.60;99.90;;;;;;5032106;28;20025;-52
2022/12/31 05:06:55;;;;;;;2.25;1.10;;;15.60;99.90;;;;;;5032008;28;20107;-45
2022/12/31 05:09:22;;;;;;;1.40;1.05;;;15.70;99.90;;;;;;5032107;28;20041;-48
2022/12/31 05:11:48;;;;;;;1.25;1.13;;;15.60;99.90;;;;;;5014032;28;20493;-53
2022/12/31 05:14:14;;;;;;;2.10;1.13;;;15.70;99.90;;;;;;5031627;28;20037;-48
2022/12/31 05:16:39;;;;;;;1.27;1.15;;;15.70;99.90;;;;;;5031901;28;20018;-48
2022/12/31 05:19:08;;;;;;;3.25;1.23;;;15.70;99.90;;;;;;5032335;28;20362;-47
2022/12/31 05:21:34;;;;;;;3.30;0.80;;;15.70;99.90;;;;;;5031856;28;20033;-49
2022/12/31 05:23:59;;;;;;;1.02;0.93;;;15.70;99.90;;;;;;5031158;28;20018;-52
2022/12/31 05:26:25;;;;;;;3.63;0.80;;;15.70;99.90;;;;;;5031786;28;20033;-48
2022/12/31 05:28:50;;;;;;;1.30;1.20;;;15.70;99.90;;;;;;5031871;28;20034;-47
2022/12/31 05:31:16;;;;;;;4.75;1.17;;;15.70;99.90;;;;;;5031638;28;20040;-46
2022/12/31 05:33:41;;;;;;;2.95;1.00;;;15.80;99.90;;;;;;5030840;28;20489;-43
2022/12/31 05:36:07;;;;;;;2.05;1.00;;;15.80;99.90;;;;;;5031708;28;20036;-47
2022/12/31 05:38:33;;;;;;;0.80;0.80;;;15.70;99.90;;;;;;5031525;28;20025;-46
2022/12/31 05:41:03;;;;;;;1.23;0.88;;;15.80;99.90;;;;;;5031502;28;20567;-45
2022/12/31 05:43:29;;;;;;;5.25;0.85;;;15.80;99.90;;;;;;5030863;28;20075;-49
2022/12/31 05:45:54;;;;;;;2.17;1.40;;;15.80;99.90;;;;;;5013631;28;20116;-51
2022/12/31 05:48:20;;;;;;;0.93;0.90;;;15.80;99.90;;;;;;5031431;28;20033;-47
2022/12/31 05:50:47;;;;;;;0.98;0.75;;;15.90;99.90;;;;;;5031330;28;20034;-51
2022/12/31 05:53:12;;;;;;;3.65;1.60;;;15.90;99.90;;;;;;5030688;28;20504;-46
2022/12/31 05:55:38;;;;;;;0.60;0.60;;;15.80;99.90;;;;;;5029815;28;20029;-47
2022/12/31 05:58:03;;;;;;;4.00;1.13;;;15.80;99.90;;;;;;5031413;28;20026;-47
2022/12/31 06:00:29;;;;;;;1.55;0.88;;;15.90;99.90;;;;;;5031203;28;20034;-48
2022/12/31 06:02:54;;;;;;;1.00;1.00;;;15.90;99.90;;;;;;5030969;28;20072;-48
2022/12/31 06:05:20;;;;;;;0.95;0.90;;;15.90;99.90;;;;;;5030913;28;20053;-44
2022/12/31 06:07:45;;;;;;;0.90;0.90;;;15.80;99.90;;;;;;5031272;28;20104;-48
2022/12/31 06:10:11;;;;;;;4.22;1.17;;;15.90;99.90;;;;;;5031211;28;20033;-46
2022/12/31 06:12:36;;;;;;;3.85;0.90;;;15.80;99.90;;;;;;5030620;28;20551;-49
2022/12/31 06:15:03;;;;;;;0.98;0.80;;;15.90;99.90;;;;;;5031409;28;20625;-50
2022/12/31 06:17:31;;;;;;;1.73;0.98;;;15.90;99.90;;;;;;5032189;28;20508;-46
2022/12/31 06:19:57;;;;;;;1.10;1.00;;;15.90;99.90;;;;;;5035324;28;20057;-48
2022/12/31 06:22:22;;;;;;;1.38;0.93;;;15.90;99.90;;;;;;5034412;28;20060;-47
2022/12/31 06:24:48;;;;;;;0.90;0.90;;;15.90;99.90;;;;;;5035096;28;20045;-46
2022/12/31 06:27:13;;;;;;;1.30;0.90;;;15.80;99.90;;;;;;5017285;28;20025;-48
2022/12/31 06:29:39;;;;;;;4.25;0.80;;;15.80;99.90;;;;;;5034991;28;20615;-50
2022/12/31 06:32:05;;;;;;;2.72;1.00;;;15.80;99.90;;;;;;5034434;28;20079;-48
2022/12/31 06:34:30;;;;;;;2.33;0.70;;;15.80;99.90;;;;;;5017277;28;20022;-46
2022/12/31 06:36:56;;;;;;;2.60;0.90;;;15.80;99.90;;;;;;5034966;28;20362;-47
2022/12/31 06:39:21;;;;;;;0.63;0.63;;;15.90;99.90;;;;;;5035071;28;20477;-46
2022/12/31 06:41:47;;;;;;;1.35;0.93;;;15.80;99.90;;;;;;5034801;28;20041;-47
2022/12/31 06:44:13;;;;;;;1.75;1.33;;;15.90;99.90;;;;;;5034359;28;20075;-48
2022/12/31 06:46:39;;;;;;;1.75;1.10;;;15.90;99.90;;;;;;5034981;28;20343;-47
2022/12/31 06:49:04;;;;;;;1.73;1.20;;;15.90;99.90;;;;;;5034690;28;20104;-46
2022/12/31 06:51:30;;;;;;;3.33;0.93;;;15.90;99.90;;;;;;5034528;28;20025;-46
2022/12/31 06:53:55;;;;;;;1.95;1.10;;;15.90;99.90;;;;;;5033377;28;20469;-50
2022/12/31 06:56:27;;;;;;;1.10;0.90;;;15.90;99.90;;;;;;5034502;28;20473;-48
2022/12/31 06:58:54;;;;;;;1.20;1.00;;;15.90;99.90;;;;;;5034586;28;20033;-46
2022/12/31 07:01:56;;;;;;;0.70;0.68;;;15.90;99.90;;;;;;5034634;28;20052;-48
2022/12/31 07:04:43;;;;;;;2.83;1.10;;;15.90;99.90;;;;;;5034535;28;20225;-47
2022/12/31 07:07:27;;;;;;;1.17;1.00;;;15.90;99.90;;;;;;5034683;28;20030;-48
2022/12/31 07:10:16;;;;;;;3.03;0.80;;;15.90;99.90;;;;;;5034474;28;20037;-47
2022/12/31 07:12:51;;;;;;;2.85;0.95;;;16.00;99.90;;;;;;5033478;28;20053;-51
2022/12/31 07:15:35;;;;;;;3.60;0.90;;;16.00;99.90;;;;;;5034301;28;20021;-51
2022/12/31 07:18:05;;;;;;;0.93;0.73;;;16.00;99.90;;;;;;5034289;28;20505;-50
2022/12/31 07:20:31;;;;;;;1.27;1.00;;;16.00;99.90;;;;;;5034165;28;20043;-46
2022/12/31 07:22:56;;;;;;;2.40;1.10;;;16.00;99.90;;;;;;5033359;28;20389;-47
2022/12/31 07:25:22;;;;;;;2.15;0.90;;;16.00;99.90;;;;;;5033982;28;20029;-48
2022/12/31 07:28:07;;;;;;;1.50;0.90;;;15.90;99.90;;;;;;5033834;28;20350;-46
2022/12/31 07:30:41;;;;;;;1.30;1.20;;;15.90;99.90;;;;;;5033807;28;20033;-50
2022/12/31 07:33:37;;;;;;;1.30;0.85;;;16.00;99.90;;;;;;5033179;28;20033;-49
2022/12/31 07:36:14;;;;;;;1.77;0.93;;;16.00;99.90;;;;;;5033815;28;20148;-48
2022/12/31 07:38:55;;;;;;;1.33;0.82;;;15.90;99.90;;;;;;5033948;28;20053;-47
2022/12/31 07:41:25;;;;;;;1.20;1.10;;;15.90;99.90;;;;;;5033536;28;20080;-49
2022/12/31 07:44:06;;;;;;;3.85;1.40;;;15.90;99.90;;;;;;5032760;28;20025;-50
2022/12/31 07:46:49;;;;;;;3.40;1.30;;;16.00;99.90;;;;;;5033537;28;20045;-50
2022/12/31 07:49:15;;;;;;;1.40;1.30;;;16.00;99.90;;;;;;5015917;28;20037;-48
2022/12/31 07:51:40;;;;;;;6.28;1.27;;;16.00;99.90;;;;;;5015642;28;20406;-48
2022/12/31 07:54:07;;;;;;;2.28;1.13;;;16.00;99.90;;;;;;5013311;28;20138;-47
2022/12/31 07:56:33;;;;;;;1.60;1.25;;;16.00;99.90;;;;;;5033401;28;20029;-48
2022/12/31 07:59:16;;;;;;;5.35;1.65;;;16.00;99.90;;;;;;5033530;28;20516;-44
2022/12/31 08:01:52;;;;;;;1.95;1.55;;;15.90;99.90;;;;;;5015660;28;20120;-45
2022/12/31 08:04:52;;;;;;;1.80;1.67;;;15.90;99.90;;;;;;5015382;28;20025;-51
2022/12/31 08:07:39;;;;;;;1.30;1.20;;;15.90;99.90;;;;;;5033340;28;20041;-50
2022/12/31 08:10:16;;;;;;;3.55;1.30;;;15.90;99.90;;;;;;5015501;28;20120;-47
2022/12/31 08:12:44;;;;;;;3.67;1.10;;;15.90;99.90;;;;;;5032457;28;20037;-48
2022/12/31 08:15:14;;;;;;;1.83;1.05;;;15.90;99.90;;;;;;5033183;28;20100;-49
2022/12/31 08:17:40;;;;;;;2.75;1.60;;;15.90;99.90;;;;;;5015386;28;20025;-49
2022/12/31 08:20:10;;;;;;;1.80;1.42;;;15.90;99.90;;;;;;5015191;28;20017;-50
2022/12/31 08:22:59;;;;;;;2.35;1.35;;;15.90;99.90;;;;;;5032228;28;20051;-51
2022/12/31 08:25:37;;;;;;;3.75;1.40;;;15.80;99.90;;;;;;5033132;28;20435;-49
2022/12/31 08:28:23;;;;;;;1.70;1.25;;;15.80;99.90;;;;;;5033018;28;20406;-50
2022/12/31 08:31:01;;;;;;;1.45;1.35;;;15.80;99.90;;;;;;5015315;28;20068;-47
2022/12/31 08:33:29;;;;;;;3.38;1.33;;;15.80;99.90;;;;;;5032009;28;20035;-48
2022/12/31 08:36:23;;;;;;;2.50;1.33;;;15.80;99.90;;;;;;5032756;28;20032;-45
2022/12/31 08:39:23;;;;;;;4.55;1.38;;;15.80;99.90;;;;;;5015005;28;20080;-48
2022/12/31 08:41:52;;;;;;;2.88;1.88;;;15.80;99.90;;;;;;5031648;28;20044;-48
2022/12/31 08:44:32;;;;;;;2.15;1.27;;;15.80;99.90;;;;;;5032577;28;20104;-49
2022/12/31 08:47:15;;;;;;;4.70;1.60;;;15.80;99.90;;;;;;5032469;28;20040;-46
2022/12/31 08:49:41;;;;;;;3.00;1.30;;;15.80;99.90;;;;;;5032609;28;20032;-46
2022/12/31 08:52:18;;;;;;;2.88;1.05;;;15.80;99.90;;;;;;5031642;28;20246;-47
2022/12/31 08:54:44;;;;;;;2.80;1.85;;;15.80;99.90;;;;;;5031254;28;20037;-48
2022/12/31 08:57:39;;;;;;;1.75;1.10;;;15.80;99.90;;;;;;5034495;28;20025;-48
2022/12/31 09:00:14;;;;;;;0.85;0.85;;;15.80;99.90;;;;;;5045110;28;20071;-46
2022/12/31 09:03:04;;;;;;;3.58;2.25;;;15.80;99.90;;;;;;5008991;28;20029;-47
2022/12/31 09:06:01;;;;;;;1.38;1.27;;;15.80;99.90;;;;;;5031889;28;20029;-53
2022/12/31 09:08:49;;;;;;;2.22;1.30;;;15.80;99.90;;;;;;5030089;28;20057;-50
2022/12/31 09:11:40;;;;;;;5.13;1.40;;;15.80;99.90;;;;;;5031735;28;20025;-46
2022/12/31 09:14:17;;;;;;;5.72;1.48;;;15.80;99.90;;;;;;5031210;28;20018;-51
2022/12/31 09:16:48;;;;;;;1.42;1.27;;;15.80;99.90;;;;;;5031400;28;20025;-49
2022/12/31 09:19:14;;;;;;;3.03;1.20;;;15.80;99.90;;;;;;5031980;28;20030;-48
2022/12/31 09:21:43;;;;;;;4.03;1.73;;;15.90;99.90;;;;;;5030736;28;20132;-46
2022/12/31 09:24:13;;;;;;;1.55;1.42;;;15.90;99.90;;;;;;5030925;28;20026;-47
2022/12/31 09:27:05;;;;;;;1.95;1.25;;;15.90;99.90;;;;;;5031167;28;20037;-47
2022/12/31 09:29:55;;;;;;;4.10;1.15;;;16.00;99.90;;;;;;5032187;28;20049;-46
2022/12/31 09:32:51;;;;;;;2.83;1.50;;;16.10;99.90;;;;;;5029528;28;20068;-50
2022/12/31 09:35:39;;;;;;;2.15;1.60;;;16.20;99.90;;;;;;5031711;28;20214;-53
2022/12/31 09:38:17;;;;;;;3.50;1.80;;;16.20;99.90;;;;;;5031475;28;20013;-53
2022/12/31 09:41:01;;;;;;;1.60;1.42;;;16.20;99.90;;;;;;5031535;28;20067;-52
2022/12/31 09:43:41;;;;;;;3.28;1.35;;;16.30;99.90;;;;;;5076332;22;20113;-52
2022/12/31 09:46:31;;;;;;;2.72;1.90;;;16.40;99.90;;;;;;5071717;28;20029;-54
2022/12/31 09:49:30;;;;;;;3.22;1.95;;;16.40;99.90;;;;;;5053267;28;20025;-53
2022/12/31 09:52:15;;;;;;;3.03;1.55;;;16.50;99.90;;;;;;5069852;28;20437;-51
2022/12/31 09:54:46;;;;;;;2.17;1.37;;;16.50;99.90;;;;;;5033704;28;20021;-54
2022/12/31 09:57:38;;;;;;;2.60;1.30;;;16.50;99.90;;;;;;5050918;28;20271;-55
2022/12/31 10:00:10;;;;;;;3.80;1.50;;;16.80;99.90;;;;;;5043416;28;20413;-49
2022/12/31 10:03:09;;;;;;;7.40;1.73;;;17.00;99.90;;;;;;5047264;28;20052;-51
2022/12/31 10:06:00;;;;;;;2.45;1.50;;;17.30;99.90;;;;;;5031402;28;20053;-52
2022/12/31 10:08:50;;;;;;;4.55;1.45;;;17.10;99.90;;;;;;5033658;28;20040;-55
2022/12/31 10:11:32;;;;;;;5.93;1.67;;;17.10;99.90;;;;;;5039447;28;20067;-48
2022/12/31 10:14:18;;;;;;;3.42;1.60;;;17.20;99.90;;;;;;5031291;28;20018;-53
2022/12/31 10:17:12;;;;;;;1.17;1.10;;;17.30;99.90;;;;;;5024113;28;20025;-54
2022/12/31 10:19:46;;;;;;;1.80;1.30;;;17.40;99.90;;;;;;5035293;28;20026;-51
2022/12/31 10:22:53;;;;;;;2.92;1.45;;;17.50;99.90;;;;;;5033000;28;20029;-53
2022/12/31 10:25:25;;;;;;;2.05;1.45;;;17.40;99.90;;;;;;5026042;28;20049;-51
2022/12/31 10:28:04;;;;;;;3.08;1.35;;;17.40;99.90;;;;;;5031307;28;20033;-51
2022/12/31 10:30:33;;;;;;;5.70;1.50;;;17.30;99.90;;;;;;5035804;28;20096;-50
2022/12/31 10:33:20;;;;;;;3.40;1.33;;;17.30;99.90;;;;;;5049374;28;20404;-52
2022/12/31 10:36:10;;;;;;;2.13;1.13;;;17.30;99.90;;;;;;5051308;28;20025;-47
2022/12/31 10:39:22;;;;;;;7.10;1.30;;;17.30;99.90;;;;;;5050945;28;20400;-50
2022/12/31 10:42:25;;;;;;;1.75;1.20;;;17.40;99.90;;;;;;5051132;28;20021;-52
2022/12/31 10:45:35;;;;;;;4.50;1.08;;;17.60;99.90;;;;;;5051036;28;20040;-55
2022/12/31 10:48:22;;;;;;;1.23;1.15;;;17.80;99.90;;;;;;4979416;28;20414;-52
2022/12/31 10:51:07;;;;;;;2.15;1.15;;;18.10;99.90;;;;;;5051081;28;20060;-52
2022/12/31 10:54:08;;;;;;;3.03;1.02;;;18.30;99.90;;;;;;5030580;28;20036;-53
2022/12/31 10:57:05;;;;;;;3.42;1.40;;;18.40;99.90;;;;;;5044223;28;20032;-55
2022/12/31 11:00:06;;;;;;;1.10;1.00;;;18.40;99.90;;;;;;5052088;28;20028;-50
2022/12/31 11:03:09;;;;;;;2.97;1.35;;;18.40;99.90;;;;;;5051218;28;20044;-50
2022/12/31 11:06:10;;;;;;;1.33;1.20;;;18.30;99.90;;;;;;5054750;28;20154;-52
2022/12/31 11:08:48;;;;;;;2.78;1.23;;;18.20;99.90;;;;;;5030007;28;20526;-49
2022/12/31 11:11:47;;;;;;;4.05;1.77;;;18.00;99.90;;;;;;5052479;28;20145;-54
2022/12/31 11:14:39;;;;;;;5.28;1.40;;;18.00;99.90;;;;;;5054155;28;20029;-51
2022/12/31 11:17:29;;;;;;;1.60;1.40;;;17.90;99.90;;;;;;5054697;28;20469;-52
2022/12/31 11:20:05;;;;;;;5.40;1.55;;;17.70;99.90;;;;;;5044857;28;20052;-52
2022/12/31 11:23:02;;;;;;;4.10;1.60;;;17.60;99.90;;;;;;5039289;28;20048;-51
2022/12/31 11:25:37;;;;;;;3.45;1.50;;;17.60;99.90;;;;;;5044595;28;20408;-52
2022/12/31 11:28:37;;;;;;;2.30;1.20;;;17.60;99.90;;;;;;5052716;28;20476;-48
2022/12/31 11:31:30;;;;;;;2.45;1.40;;;17.50;99.90;;;;;;4936433;29;20495;-52
2022/12/31 11:34:21;;;;;;;2.63;1.30;;;17.50;99.90;;;;;;5050201;28;20036;-53
2022/12/31 11:36:53;;;;;;;2.90;1.50;;;17.40;99.90;;;;;;5053022;28;20033;-50
2022/12/31 11:39:33;;;;;;;3.78;1.48;;;17.40;99.90;;;;;;5053304;28;20037;-53
2022/12/31 11:42:39;;;;;;;4.72;1.63;;;17.40;99.90;;;;;;5052859;28;20055;-48
2022/12/31 11:45:42;;;;;;;2.55;1.48;;;17.30;99.90;;;;;;5051627;28;20095;-50
2022/12/31 11:48:33;;;;;;;2.85;1.00;;;17.30;99.90;;;;;;5053717;28;20148;-46
2022/12/31 11:51:01;;;;;;;2.08;1.30;;;17.30;99.90;;;;;;5053024;28;20029;-52
2022/12/31 11:54:01;;;;;;;3.17;1.00;;;17.30;99.90;;;;;;5034314;28;20028;-48
2022/12/31 11:56:36;;;;;;;3.40;1.30;;;17.40;99.90;;;;;;5053311;28;20025;-50
2022/12/31 11:59:09;;;;;;;1.13;1.08;;;17.30;99.90;;;;;;5054267;28;20017;-49
2022/12/31 12:01:55;;;;;;;4.13;1.52;;;17.40;99.90;;;;;;5053429;28;20076;-53
2022/12/31 12:04:21;;;;;;;1.45;1.35;;;17.40;99.90;;;;;;5053004;28;20037;-55
2022/12/31 12:06:46;;;;;;;1.40;1.10;;;17.40;99.90;;;;;;5053206;28;20029;-53
2022/12/31 12:09:23;;;;;;;2.22;1.60;;;17.40;99.90;;;;;;5053529;28;20025;-50
2022/12/31 12:11:58;;;;;;;3.58;1.48;;;17.40;99.90;;;;;;5052496;28;20051;-53
2022/12/31 12:14:40;;;;;;;4.45;1.27;;;17.50;99.90;;;;;;5052536;28;20029;-53
2022/12/31 12:17:09;;;;;;;2.40;1.17;;;17.50;99.90;;;;;;5034697;28;20044;-52
2022/12/31 12:19:42;;;;;;;1.73;1.05;;;17.50;99.90;;;;;;5052763;28;20068;-54
2022/12/31 12:22:10;;;;;;;2.65;1.27;;;17.50;99.90;;;;;;5033796;28;20036;-54
2022/12/31 12:24:36;;;;;;;4.28;1.73;;;17.50;99.90;;;;;;5052611;28;20108;-52
2022/12/31 12:27:01;;;;;;;3.40;1.50;;;17.50;99.90;;;;;;5052257;28;20154;-55
2022/12/31 12:29:30;;;;;;;3.08;1.70;;;17.60;99.90;;;;;;5051950;28;20026;-54
2022/12/31 12:32:13;;;;;;;2.97;1.23;;;17.60;99.90;;;;;;5051515;28;20470;-51
2022/12/31 12:34:40;;;;;;;1.30;1.20;;;17.70;99.90;;;;;;5052139;28;20017;-51
2022/12/31 12:37:20;;;;;;;2.35;1.23;;;17.60;99.90;;;;;;5052187;28;20052;-50
2022/12/31 12:39:56;;;;;;;3.58;1.30;;;17.60;99.90;;;;;;5052048;28;20138;-53
2022/12/31 12:42:22;;;;;;;2.25;1.17;;;17.70;99.90;;;;;;5051081;28;20025;-51
2022/12/31 12:44:47;;;;;;;1.27;1.17;;;17.70;99.90;;;;;;5051975;28;20033;-51
2022/12/31 12:47:18;;;;;;;2.70;1.85;;;17.60;99.90;;;;;;5052241;28;20481;-53
2022/12/31 12:49:46;;;;;;;1.23;1.10;;;17.60;99.90;;;;;;5052096;28;20166;-50
2022/12/31 12:52:20;;;;;;;2.35;1.10;;;17.60;99.90;;;;;;5050604;28;20035;-53
2022/12/31 12:55:07;;;;;;;6.60;0.93;;;17.70;99.90;;;;;;5052439;28;20017;-54
2022/12/31 12:57:51;;;;;;;1.20;1.10;;;17.70;99.90;;;;;;5051894;28;20519;-49
2022/12/31 13:00:31;;;;;;;0.93;0.93;;;17.70;99.90;;;;;;5051557;28;20029;-55
2022/12/31 13:03:15;;;;;;;1.23;0.80;;;17.80;99.90;;;;;;5033317;28;20017;-53
2022/12/31 13:06:10;;;;;;;1.03;1.03;;;17.80;99.90;;;;;;5044854;28;20595;-51
2022/12/31 13:09:09;;;;;;;1.67;1.00;;;17.80;99.90;;;;;;5009377;28;20279;-50
2022/12/31 13:11:54;;;;;;;2.60;0.98;;;17.80;99.90;;;;;;5051590;28;20040;-52
2022/12/31 13:14:31;;;;;;;2.88;1.35;;;17.80;99.90;;;;;;5033282;28;20056;-54
2022/12/31 13:17:29;;;;;;;3.70;1.00;;;17.80;99.90;;;;;;5051647;28;20064;-51
2022/12/31 13:20:07;;;;;;;2.75;1.05;;;17.80;99.90;;;;;;5051568;28;20032;-51
2022/12/31 13:23:05;;;;;;;2.35;0.95;;;17.90;99.90;;;;;;5050742;28;20032;-50
2022/12/31 13:25:57;;;;;;;2.55;1.10;;;17.80;99.90;;;;;;5033563;28;20025;-51
2022/12/31 13:28:24;;;;;;;0.95;0.88;;;17.90;99.90;;;;;;5031667;28;20059;-48
2022/12/31 13:30:55;;;;;;;2.72;0.93;;;17.90;99.90;;;;;;5051109;28;20021;-49
2022/12/31 13:33:32;;;;;;;0.82;0.82;;;17.90;99.90;;;;;;5050041;28;20485;-52
2022/12/31 13:36:01;;;;;;;0.95;0.77;;;17.90;99.90;;;;;;5038172;28;20048;-50
2022/12/31 13:38:36;;;;;;;2.30;0.90;;;17.90;99.90;;;;;;5051796;28;20025;-52
2022/12/31 13:41:10;;;;;;;0.77;0.77;;;18.00;99.90;;;;;;5051026;28;20100;-49
2022/12/31 13:43:47;;;;;;;1.25;0.90;;;18.00;99.90;;;;;;5028689;28;20041;-53